world map with RDB marked

RDB - Airport

This information may not be accurate or current and is not valid for navigation or flight planning. No warranty of fitness for any purpose is made or implied.

flag of Alaskaflag of United States

Donate via PayPal

Additional information is available on the NEW Great Circle Mapper

Location
City:  Red Dog, Alaska, United States
ICAO / IATA:PADG / RDB
FAA:DGG

Details
Type:Airport (Part 139 Class I)
Use:Private
Latitude:68°01'56"N (68.032111)
Longitude:162°53'57"W (-162.899193)
Datum:WGS 1984
Elevation:969 ft (295 m)
Runways:1
Longest:6312 × 100 ft (1924 × 30.5 m)

Time
Timezone:UTC+25:08 (DST+26:08)
Local Time:

Weather
METAR:PADG  182300Z 00000KT 15SM FEW090 11/03 A2933

Related Locations
Nearby:
Farthest:NZSP: 10906 mi / 17551 km
Amundsen-Scott South Pole Station [Jack F. Paulus Skiway], AQ

Find:

   beyond  
but within

Other Information
Maps:
Links:
Sources:

  

Sectional Chart

Flight Planning
at skyvector.com

 


Great Circle Mapper   Great Circle Mapper
Great Circle Mapper FAQ   Great Circle Mapper FAQ
  Karl's Home Page
KLSē   KLSē Home
   GC on Facebook
Airlines of the World   Airlines of the World
Donate via PayPal


Copyright © 2004-2014, Karl L. Swartz. All rights reserved.
All trademarks mentioned herein belong to their respective owners.

Please see credits for attribution and copyright information.

Karl Swartz <karl@kls2.com>
  Powered by FreeBSD
Valid HTML 4.01!
Labeled with ICRA
hCard Microformat
Geo Microformat